sensor_id;sensor_type;location;lat;lon;timestamp;temperature;humidity
53274;DHT22;39163;52.696;6.758;2022-11-20T00:02:00;-2.50;99.90
53274;DHT22;39163;52.696;6.758;2022-11-20T00:04:25;-2.50;99.90
53274;DHT22;39163;52.696;6.758;2022-11-20T00:06:57;-2.50;99.90
53274;DHT22;39163;52.696;6.758;2022-11-20T00:09:48;-2.50;99.90
53274;DHT22;39163;52.696;6.758;2022-11-20T00:12:14;-2.50;99.90
53274;DHT22;39163;52.696;6.758;2022-11-20T00:14:55;-2.50;99.90
53274;DHT22;39163;52.696;6.758;2022-11-20T00:17:26;-2.50;99.90
53274;DHT22;39163;52.696;6.758;2022-11-20T00:19:55;-2.50;99.90
53274;DHT22;39163;52.696;6.758;2022-11-20T00:22:20;-2.50;99.90
53274;DHT22;39163;52.696;6.758;2022-11-20T00:24:46;-2.50;99.90
53274;DHT22;39163;52.696;6.758;2022-11-20T00:27:12;-2.60;99.90
53274;DHT22;39163;52.696;6.758;2022-11-20T00:29:40;-2.60;99.90
53274;DHT22;39163;52.696;6.758;2022-11-20T00:32:12;-2.60;99.90
53274;DHT22;39163;52.696;6.758;2022-11-20T00:34:38;-2.60;99.90
53274;DHT22;39163;52.696;6.758;2022-11-20T00:37:03;-2.60;99.90
53274;DHT22;39163;52.696;6.758;2022-11-20T00:39:29;-2.60;99.90
53274;DHT22;39163;52.696;6.758;2022-11-20T00:41:58;-2.50;99.90
53274;DHT22;39163;52.696;6.758;2022-11-20T00:44:23;-2.50;99.90
53274;DHT22;39163;52.696;6.758;2022-11-20T00:46:58;-2.40;99.90
53274;DHT22;39163;52.696;6.758;2022-11-20T00:49:26;-2.40;99.90
53274;DHT22;39163;52.696;6.758;2022-11-20T00:51:52;-2.30;99.90
53274;DHT22;39163;52.696;6.758;2022-11-20T00:54:33;-2.20;99.90
53274;DHT22;39163;52.696;6.758;2022-11-20T00:56:59;-2.20;99.90
53274;DHT22;39163;52.696;6.758;2022-11-20T00:59:40;-2.20;99.90
53274;DHT22;39163;52.696;6.758;2022-11-20T01:02:05;-2.10;99.90
53274;DHT22;39163;52.696;6.758;2022-11-20T01:04:31;-2.10;99.90
53274;DHT22;39163;52.696;6.758;2022-11-20T01:06:57;-2.00;99.90
53274;DHT22;39163;52.696;6.758;2022-11-20T01:09:22;-2.00;99.90
53274;DHT22;39163;52.696;6.758;2022-11-20T01:11:50;-2.00;99.90
53274;DHT22;39163;52.696;6.758;2022-11-20T01:14:19;-1.90;99.90
53274;DHT22;39163;52.696;6.758;2022-11-20T01:16:52;-1.90;99.90
53274;DHT22;39163;52.696;6.758;2022-11-20T01:19:21;-1.80;99.90
53274;DHT22;39163;52.696;6.758;2022-11-20T01:21:52;-1.80;99.90
53274;DHT22;39163;52.696;6.758;2022-11-20T01:24:24;-1.70;99.90
53274;DHT22;39163;52.696;6.758;2022-11-20T01:26:52;-1.70;99.90
53274;DHT22;39163;52.696;6.758;2022-11-20T01:29:20;-1.70;99.90
53274;DHT22;39163;52.696;6.758;2022-11-20T01:31:52;-1.60;99.90
53274;DHT22;39163;52.696;6.758;2022-11-20T01:34:19;-1.70;99.90
53274;DHT22;39163;52.696;6.758;2022-11-20T01:36:49;-1.70;99.90
53274;DHT22;39163;52.696;6.758;2022-11-20T01:39:25;-1.70;99.90
53274;DHT22;39163;52.696;6.758;2022-11-20T01:41:57;-1.70;99.90
53274;DHT22;39163;52.696;6.758;2022-11-20T01:44:56;-1.80;99.90
53274;DHT22;39163;52.696;6.758;2022-11-20T01:47:40;-1.80;99.90
53274;DHT22;39163;52.696;6.758;2022-11-20T01:50:17;-1.80;99.90
53274;DHT22;39163;52.696;6.758;2022-11-20T01:53:01;-1.80;99.90
53274;DHT22;39163;52.696;6.758;2022-11-20T01:55:31;-1.90;99.90
53274;DHT22;39163;52.696;6.758;2022-11-20T01:57:57;-1.80;99.90
53274;DHT22;39163;52.696;6.758;2022-11-20T02:00:24;-1.80;99.90
53274;DHT22;39163;52.696;6.758;2022-11-20T02:02:54;-1.80;99.90
53274;DHT22;39163;52.696;6.758;2022-11-20T02:08:06;-1.70;99.90
53274;DHT22;39163;52.696;6.758;2022-11-20T02:10:33;-1.80;99.90
53274;DHT22;39163;52.696;6.758;2022-11-20T02:12:59;-1.70;99.90
53274;DHT22;39163;52.696;6.758;2022-11-20T02:15:48;-1.70;99.90
53274;DHT22;39163;52.696;6.758;2022-11-20T02:18:16;-1.60;99.90
53274;DHT22;39163;52.696;6.758;2022-11-20T02:20:44;-1.60;99.90
53274;DHT22;39163;52.696;6.758;2022-11-20T02:23:15;-1.60;99.90
53274;DHT22;39163;52.696;6.758;2022-11-20T02:25:47;-1.60;99.90
53274;DHT22;39163;52.696;6.758;2022-11-20T02:28:14;-1.60;99.90
53274;DHT22;39163;52.696;6.758;2022-11-20T02:30:52;-1.60;99.90
53274;DHT22;39163;52.696;6.758;2022-11-20T02:33:33;-1.50;99.90
53274;DHT22;39163;52.696;6.758;2022-11-20T02:35:59;-1.50;99.90
53274;DHT22;39163;52.696;6.758;2022-11-20T02:38:24;-1.50;99.90
53274;DHT22;39163;52.696;6.758;2022-11-20T02:40:56;-1.40;99.90
53274;DHT22;39163;52.696;6.758;2022-11-20T02:43:22;-1.40;99.90
53274;DHT22;39163;52.696;6.758;2022-11-20T02:45:54;-1.40;99.90
53274;DHT22;39163;52.696;6.758;2022-11-20T02:48:32;-1.40;99.90
53274;DHT22;39163;52.696;6.758;2022-11-20T02:50:57;-1.40;99.90
53274;DHT22;39163;52.696;6.758;2022-11-20T02:53:23;-1.50;99.90
53274;DHT22;39163;52.696;6.758;2022-11-20T02:55:49;-1.50;99.90
53274;DHT22;39163;52.696;6.758;2022-11-20T02:58:14;-1.40;99.90
53274;DHT22;39163;52.696;6.758;2022-11-20T03:00:40;-1.40;99.90
53274;DHT22;39163;52.696;6.758;2022-11-20T03:03:05;-1.40;99.90
53274;DHT22;39163;52.696;6.758;2022-11-20T03:05:40;-1.30;99.90
53274;DHT22;39163;52.696;6.758;2022-11-20T03:08:06;-1.30;99.90
53274;DHT22;39163;52.696;6.758;2022-11-20T03:10:32;-1.30;99.90
53274;DHT22;39163;52.696;6.758;2022-11-20T03:12:57;-1.30;99.90
53274;DHT22;39163;52.696;6.758;2022-11-20T03:15:23;-1.20;99.90
53274;DHT22;39163;52.696;6.758;2022-11-20T03:17:52;-1.20;99.90
53274;DHT22;39163;52.696;6.758;2022-11-20T03:20:18;-1.10;99.90
53274;DHT22;39163;52.696;6.758;2022-11-20T03:22:43;-1.00;99.90
53274;DHT22;39163;52.696;6.758;2022-11-20T03:25:09;-1.10;99.90
53274;DHT22;39163;52.696;6.758;2022-11-20T03:27:35;-1.00;99.90
53274;DHT22;39163;52.696;6.758;2022-11-20T03:30:01;-1.00;99.90
53274;DHT22;39163;52.696;6.758;2022-11-20T03:32:26;-1.10;99.90
53274;DHT22;39163;52.696;6.758;2022-11-20T03:34:52;-1.10;99.90
53274;DHT22;39163;52.696;6.758;2022-11-20T03:37:18;-1.00;99.90
53274;DHT22;39163;52.696;6.758;2022-11-20T03:39:43;-1.00;99.90
53274;DHT22;39163;52.696;6.758;2022-11-20T03:42:09;-1.00;99.90
53274;DHT22;39163;52.696;6.758;2022-11-20T03:44:53;-1.10;99.90
53274;DHT22;39163;52.696;6.758;2022-11-20T03:47:19;-1.00;99.90
53274;DHT22;39163;52.696;6.758;2022-11-20T03:49:44;-1.00;99.90
53274;DHT22;39163;52.696;6.758;2022-11-20T03:52:10;-0.90;99.90
53274;DHT22;39163;52.696;6.758;2022-11-20T03:54:36;-0.90;99.90
53274;DHT22;39163;52.696;6.758;2022-11-20T03:57:01;-0.90;99.90
53274;DHT22;39163;52.696;6.758;2022-11-20T03:59:27;-1.00;99.90
53274;DHT22;39163;52.696;6.758;2022-11-20T04:01:53;-1.00;99.90
53274;DHT22;39163;52.696;6.758;2022-11-20T04:04:18;-1.00;99.90
53274;DHT22;39163;52.696;6.758;2022-11-20T04:06:44;-0.90;99.90
53274;DHT22;39163;52.696;6.758;2022-11-20T04:09:10;-0.90;99.90
53274;DHT22;39163;52.696;6.758;2022-11-20T04:11:37;-0.90;99.90
53274;DHT22;39163;52.696;6.758;2022-11-20T04:14:11;-1.00;99.90
53274;DHT22;39163;52.696;6.758;2022-11-20T04:16:37;-1.10;99.90
53274;DHT22;39163;52.696;6.758;2022-11-20T04:19:05;-1.00;99.90
53274;DHT22;39163;52.696;6.758;2022-11-20T04:21:31;-1.00;99.90
53274;DHT22;39163;52.696;6.758;2022-11-20T04:23:57;-1.00;99.90
53274;DHT22;39163;52.696;6.758;2022-11-20T04:26:25;-1.00;99.90
53274;DHT22;39163;52.696;6.758;2022-11-20T04:28:55;-0.90;99.90
53274;DHT22;39163;52.696;6.758;2022-11-20T04:31:26;-1.00;99.90
53274;DHT22;39163;52.696;6.758;2022-11-20T04:33:55;-1.00;99.90
53274;DHT22;39163;52.696;6.758;2022-11-20T04:36:36;-1.00;99.90
53274;DHT22;39163;52.696;6.758;2022-11-20T04:39:04;-1.00;99.90
53274;DHT22;39163;52.696;6.758;2022-11-20T04:41:45;-1.10;99.90
53274;DHT22;39163;52.696;6.758;2022-11-20T04:44:11;-1.10;99.90
53274;DHT22;39163;52.696;6.758;2022-11-20T04:46:45;-1.00;99.90
53274;DHT22;39163;52.696;6.758;2022-11-20T04:49:11;-1.00;99.90
53274;DHT22;39163;52.696;6.758;2022-11-20T04:51:37;-1.00;99.90
53274;DHT22;39163;52.696;6.758;2022-11-20T04:54:03;-0.90;99.90
53274;DHT22;39163;52.696;6.758;2022-11-20T04:56:28;-0.90;99.90
53274;DHT22;39163;52.696;6.758;2022-11-20T04:59:00;-0.80;99.90
53274;DHT22;39163;52.696;6.758;2022-11-20T05:01:29;-0.80;99.90
53274;DHT22;39163;52.696;6.758;2022-11-20T05:03:58;-0.80;99.90
53274;DHT22;39163;52.696;6.758;2022-11-20T05:06:39;-0.80;99.90
53274;DHT22;39163;52.696;6.758;2022-11-20T05:09:05;-0.70;99.90
53274;DHT22;39163;52.696;6.758;2022-11-20T05:11:31;-0.70;99.90
53274;DHT22;39163;52.696;6.758;2022-11-20T05:13:58;-0.70;99.90
53274;DHT22;39163;52.696;6.758;2022-11-20T05:16:25;-0.70;99.90
53274;DHT22;39163;52.696;6.758;2022-11-20T05:18:52;-0.70;99.90
53274;DHT22;39163;52.696;6.758;2022-11-20T05:21:18;-0.80;99.90
53274;DHT22;39163;52.696;6.758;2022-11-20T05:23:44;-0.80;99.90
53274;DHT22;39163;52.696;6.758;2022-11-20T05:26:18;-0.80;99.90
53274;DHT22;39163;52.696;6.758;2022-11-20T05:28:45;-0.70;99.90
53274;DHT22;39163;52.696;6.758;2022-11-20T05:31:14;-0.70;99.90
53274;DHT22;39163;52.696;6.758;2022-11-20T05:33:41;-0.80;99.90
53274;DHT22;39163;52.696;6.758;2022-11-20T05:36:08;-0.70;99.90
53274;DHT22;39163;52.696;6.758;2022-11-20T05:38:38;-0.70;99.90
53274;DHT22;39163;52.696;6.758;2022-11-20T05:43:35;-0.60;99.90
53274;DHT22;39163;52.696;6.758;2022-11-20T05:46:02;-0.60;99.90
53274;DHT22;39163;52.696;6.758;2022-11-20T05:48:33;-0.60;99.90
53274;DHT22;39163;52.696;6.758;2022-11-20T05:51:00;-0.60;99.90
53274;DHT22;39163;52.696;6.758;2022-11-20T05:53:36;-0.60;99.90
53274;DHT22;39163;52.696;6.758;2022-11-20T05:56:09;-0.60;99.90
53274;DHT22;39163;52.696;6.758;2022-11-20T05:58:41;-0.50;99.90
53274;DHT22;39163;52.696;6.758;2022-11-20T06:01:17;-0.60;99.90
53274;DHT22;39163;52.696;6.758;2022-11-20T06:03:44;-0.60;99.90
53274;DHT22;39163;52.696;6.758;2022-11-20T06:06:14;-0.60;99.90
53274;DHT22;39163;52.696;6.758;2022-11-20T06:08:49;-0.50;99.90
53274;DHT22;39163;52.696;6.758;2022-11-20T06:11:15;-0.50;99.90
53274;DHT22;39163;52.696;6.758;2022-11-20T06:13:44;-0.50;99.90
53274;DHT22;39163;52.696;6.758;2022-11-20T06:16:11;-0.50;99.90
53274;DHT22;39163;52.696;6.758;2022-11-20T06:18:37;-0.50;99.90
53274;DHT22;39163;52.696;6.758;2022-11-20T06:23:33;-0.40;99.90
53274;DHT22;39163;52.696;6.758;2022-11-20T06:26:10;-0.40;99.90
53274;DHT22;39163;52.696;6.758;2022-11-20T06:28:36;-0.40;99.90
53274;DHT22;39163;52.696;6.758;2022-11-20T06:31:04;-0.40;99.90
53274;DHT22;39163;52.696;6.758;2022-11-20T06:33:30;-0.40;99.90
53274;DHT22;39163;52.696;6.758;2022-11-20T06:35:57;-0.30;99.90
53274;DHT22;39163;52.696;6.758;2022-11-20T06:38:24;-0.40;99.90
53274;DHT22;39163;52.696;6.758;2022-11-20T06:40:50;-0.20;99.90
53274;DHT22;39163;52.696;6.758;2022-11-20T06:43:16;-0.40;99.90
53274;DHT22;39163;52.696;6.758;2022-11-20T06:45:41;-0.40;99.90
53274;DHT22;39163;52.696;6.758;2022-11-20T06:48:08;-0.40;99.90
53274;DHT22;39163;52.696;6.758;2022-11-20T06:50:36;-0.40;99.90
53274;DHT22;39163;52.696;6.758;2022-11-20T06:53:02;-0.40;99.90
53274;DHT22;39163;52.696;6.758;2022-11-20T06:55:29;-0.40;99.90
53274;DHT22;39163;52.696;6.758;2022-11-20T06:57:55;-0.40;99.90
53274;DHT22;39163;52.696;6.758;2022-11-20T07:00:21;-0.40;99.90
53274;DHT22;39163;52.696;6.758;2022-11-20T07:02:46;-0.50;99.90
53274;DHT22;39163;52.696;6.758;2022-11-20T07:05:12;-0.50;99.90
53274;DHT22;39163;52.696;6.758;2022-11-20T07:07:38;-0.40;99.90
53274;DHT22;39163;52.696;6.758;2022-11-20T07:10:04;-0.40;99.90
53274;DHT22;39163;52.696;6.758;2022-11-20T07:12:30;-0.40;99.90
53274;DHT22;39163;52.696;6.758;2022-11-20T07:14:56;-0.40;99.90
53274;DHT22;39163;52.696;6.758;2022-11-20T07:17:22;-0.40;99.90
53274;DHT22;39163;52.696;6.758;2022-11-20T07:19:48;-0.40;99.90
53274;DHT22;39163;52.696;6.758;2022-11-20T07:22:13;-0.40;99.90
53274;DHT22;39163;52.696;6.758;2022-11-20T07:24:39;-0.50;99.90
53274;DHT22;39163;52.696;6.758;2022-11-20T07:27:05;-0.50;99.90
53274;DHT22;39163;52.696;6.758;2022-11-20T07:29:31;-0.40;99.90
53274;DHT22;39163;52.696;6.758;2022-11-20T07:31:56;-0.40;99.90
53274;DHT22;39163;52.696;6.758;2022-11-20T07:34:22;-0.50;99.90
53274;DHT22;39163;52.696;6.758;2022-11-20T07:36:48;-0.40;99.90
53274;DHT22;39163;52.696;6.758;2022-11-20T07:39:14;-0.30;99.90
53274;DHT22;39163;52.696;6.758;2022-11-20T07:41:39;-0.30;99.90
53274;DHT22;39163;52.696;6.758;2022-11-20T07:44:05;-0.20;99.90
53274;DHT22;39163;52.696;6.758;2022-11-20T07:46:31;-0.20;99.90
53274;DHT22;39163;52.696;6.758;2022-11-20T07:48:57;-0.20;99.90
53274;DHT22;39163;52.696;6.758;2022-11-20T07:51:22;-0.20;99.90
53274;DHT22;39163;52.696;6.758;2022-11-20T07:53:51;-0.20;99.90
53274;DHT22;39163;52.696;6.758;2022-11-20T07:56:16;-0.10;99.90
53274;DHT22;39163;52.696;6.758;2022-11-20T07:58:42;-0.10;99.90
53274;DHT22;39163;52.696;6.758;2022-11-20T08:01:08;-0.10;99.90
53274;DHT22;39163;52.696;6.758;2022-11-20T08:03:34;-0.10;99.90
53274;DHT22;39163;52.696;6.758;2022-11-20T08:06:03;0.00;99.90
53274;DHT22;39163;52.696;6.758;2022-11-20T08:08:29;-0.10;99.90
53274;DHT22;39163;52.696;6.758;2022-11-20T08:10:58;-0.10;99.90
53274;DHT22;39163;52.696;6.758;2022-11-20T08:13:43;-0.10;99.90
53274;DHT22;39163;52.696;6.758;2022-11-20T08:16:28;-0.10;99.90
53274;DHT22;39163;52.696;6.758;2022-11-20T08:18:54;0.00;99.90
53274;DHT22;39163;52.696;6.758;2022-11-20T08:21:20;0.00;99.90
53274;DHT22;39163;52.696;6.758;2022-11-20T08:23:45;0.10;99.90
53274;DHT22;39163;52.696;6.758;2022-11-20T08:26:11;0.20;99.90
53274;DHT22;39163;52.696;6.758;2022-11-20T08:28:37;0.10;99.90
53274;DHT22;39163;52.696;6.758;2022-11-20T08:31:03;0.20;99.90
53274;DHT22;39163;52.696;6.758;2022-11-20T08:33:29;0.20;99.90
53274;DHT22;39163;52.696;6.758;2022-11-20T08:36:00;0.20;99.90
53274;DHT22;39163;52.696;6.758;2022-11-20T08:38:26;0.00;99.90
53274;DHT22;39163;52.696;6.758;2022-11-20T08:40:52;0.00;99.90
53274;DHT22;39163;52.696;6.758;2022-11-20T08:43:39;0.00;99.90
53274;DHT22;39163;52.696;6.758;2022-11-20T08:46:05;0.00;99.90
53274;DHT22;39163;52.696;6.758;2022-11-20T08:48:31;0.00;99.90
53274;DHT22;39163;52.696;6.758;2022-11-20T08:50:58;0.00;99.90
53274;DHT22;39163;52.696;6.758;2022-11-20T08:53:24;0.10;99.90
53274;DHT22;39163;52.696;6.758;2022-11-20T08:55:50;0.10;99.90
53274;DHT22;39163;52.696;6.758;2022-11-20T08:58:16;0.10;99.90
53274;DHT22;39163;52.696;6.758;2022-11-20T09:00:41;0.10;99.90
53274;DHT22;39163;52.696;6.758;2022-11-20T09:03:07;0.10;99.90
53274;DHT22;39163;52.696;6.758;2022-11-20T09:05:33;0.10;99.90
53274;DHT22;39163;52.696;6.758;2022-11-20T09:07:59;0.10;99.90
53274;DHT22;39163;52.696;6.758;2022-11-20T09:10:25;0.10;99.90
53274;DHT22;39163;52.696;6.758;2022-11-20T09:12:52;0.30;99.90
53274;DHT22;39163;52.696;6.758;2022-11-20T09:15:18;0.60;99.90
53274;DHT22;39163;52.696;6.758;2022-11-20T09:17:58;0.80;99.90
53274;DHT22;39163;52.696;6.758;2022-11-20T09:20:25;1.00;99.90
53274;DHT22;39163;52.696;6.758;2022-11-20T09:22:51;1.30;99.90
53274;DHT22;39163;52.696;6.758;2022-11-20T09:25:17;1.50;99.90
53274;DHT22;39163;52.696;6.758;2022-11-20T09:27:43;1.70;99.90
53274;DHT22;39163;52.696;6.758;2022-11-20T09:30:12;1.90;99.90
53274;DHT22;39163;52.696;6.758;2022-11-20T09:32:42;2.20;99.90
53274;DHT22;39163;52.696;6.758;2022-11-20T09:35:08;2.30;99.90
53274;DHT22;39163;52.696;6.758;2022-11-20T09:37:34;2.50;99.90
53274;DHT22;39163;52.696;6.758;2022-11-20T09:40:00;2.60;99.90
53274;DHT22;39163;52.696;6.758;2022-11-20T09:42:52;2.70;99.90
53274;DHT22;39163;52.696;6.758;2022-11-20T09:46:07;2.70;99.90
53274;DHT22;39163;52.696;6.758;2022-11-20T09:48:32;2.90;99.90
53274;DHT22;39163;52.696;6.758;2022-11-20T09:56:30;3.80;99.90
53274;DHT22;39163;52.696;6.758;2022-11-20T09:59:00;4.10;99.90
53274;DHT22;39163;52.696;6.758;2022-11-20T10:01:31;4.10;99.90
53274;DHT22;39163;52.696;6.758;2022-11-20T10:04:03;4.00;99.90
53274;DHT22;39163;52.696;6.758;2022-11-20T10:06:44;4.10;99.90
53274;DHT22;39163;52.696;6.758;2022-11-20T10:17:19;5.00;99.90
53274;DHT22;39163;52.696;6.758;2022-11-20T10:20:27;4.90;99.90
53274;DHT22;39163;52.696;6.758;2022-11-20T10:23:10;4.90;99.90
53274;DHT22;39163;52.696;6.758;2022-11-20T10:26:12;5.20;99.90
53274;DHT22;39163;52.696;6.758;2022-11-20T10:29:13;5.40;99.90
53274;DHT22;39163;52.696;6.758;2022-11-20T10:31:41;5.50;99.90
53274;DHT22;39163;52.696;6.758;2022-11-20T10:34:45;5.50;99.90
53274;DHT22;39163;52.696;6.758;2022-11-20T10:37:22;5.50;99.90
53274;DHT22;39163;52.696;6.758;2022-11-20T10:40:18;5.70;99.90
53274;DHT22;39163;52.696;6.758;2022-11-20T10:43:02;5.90;99.90
53274;DHT22;39163;52.696;6.758;2022-11-20T10:45:43;5.80;99.90
53274;DHT22;39163;52.696;6.758;2022-11-20T10:48:17;5.80;99.90
53274;DHT22;39163;52.696;6.758;2022-11-20T10:56:41;6.10;99.90
53274;DHT22;39163;52.696;6.758;2022-11-20T11:02:01;6.50;99.90
53274;DHT22;39163;52.696;6.758;2022-11-20T11:04:44;6.30;99.90
53274;DHT22;39163;52.696;6.758;2022-11-20T11:09:55;5.80;99.90
53274;DHT22;39163;52.696;6.758;2022-11-20T11:12:26;6.20;99.90
53274;DHT22;39163;52.696;6.758;2022-11-20T11:14:58;6.40;99.90
53274;DHT22;39163;52.696;6.758;2022-11-20T11:17:30;6.30;99.90
53274;DHT22;39163;52.696;6.758;2022-11-20T11:20:15;6.00;99.90
53274;DHT22;39163;52.696;6.758;2022-11-20T11:25:25;5.90;99.90
53274;DHT22;39163;52.696;6.758;2022-11-20T11:27:55;5.70;99.90
53274;DHT22;39163;52.696;6.758;2022-11-20T11:30:41;5.60;99.90
53274;DHT22;39163;52.696;6.758;2022-11-20T11:33:27;5.50;99.90
53274;DHT22;39163;52.696;6.758;2022-11-20T11:36:04;5.40;99.90
53274;DHT22;39163;52.696;6.758;2022-11-20T11:38:38;5.30;99.90
53274;DHT22;39163;52.696;6.758;2022-11-20T11:41:07;5.20;99.90
53274;DHT22;39163;52.696;6.758;2022-11-20T11:43:36;5.30;99.90
53274;DHT22;39163;52.696;6.758;2022-11-20T11:46:34;5.00;99.90
53274;DHT22;39163;52.696;6.758;2022-11-20T11:52:04;5.50;99.90
53274;DHT22;39163;52.696;6.758;2022-11-20T12:05:26;5.80;99.90
53274;DHT22;39163;52.696;6.758;2022-11-20T12:11:28;5.60;99.90
53274;DHT22;39163;52.696;6.758;2022-11-20T12:14:02;5.60;99.90
53274;DHT22;39163;52.696;6.758;2022-11-20T12:16:33;5.40;99.90
53274;DHT22;39163;52.696;6.758;2022-11-20T12:19:10;5.30;99.90
53274;DHT22;39163;52.696;6.758;2022-11-20T12:30:48;5.00;99.90
53274;DHT22;39163;52.696;6.758;2022-11-20T12:36:44;4.90;99.90
53274;DHT22;39163;52.696;6.758;2022-11-20T12:39:46;5.30;99.90
53274;DHT22;39163;52.696;6.758;2022-11-20T12:42:27;5.40;99.90
53274;DHT22;39163;52.696;6.758;2022-11-20T12:45:24;5.30;99.90
53274;DHT22;39163;52.696;6.758;2022-11-20T12:48:30;5.10;99.90
53274;DHT22;39163;52.696;6.758;2022-11-20T12:56:32;4.70;99.90
53274;DHT22;39163;52.696;6.758;2022-11-20T13:02:01;4.50;99.90
53274;DHT22;39163;52.696;6.758;2022-11-20T13:04:39;4.40;99.90
53274;DHT22;39163;52.696;6.758;2022-11-20T13:07:12;4.30;99.90
53274;DHT22;39163;52.696;6.758;2022-11-20T13:09:46;4.30;99.90
53274;DHT22;39163;52.696;6.758;2022-11-20T13:12:43;4.00;99.90
53274;DHT22;39163;52.696;6.758;2022-11-20T13:18:00;4.00;99.90
53274;DHT22;39163;52.696;6.758;2022-11-20T13:20:27;3.70;99.90
53274;DHT22;39163;52.696;6.758;2022-11-20T13:22:57;3.60;99.90
53274;DHT22;39163;52.696;6.758;2022-11-20T13:25:32;3.60;99.90
53274;DHT22;39163;52.696;6.758;2022-11-20T13:28:46;3.60;99.90
53274;DHT22;39163;52.696;6.758;2022-11-20T13:30:52;3.60;99.90
53274;DHT22;39163;52.696;6.758;2022-11-20T13:33:31;3.60;99.90
53274;DHT22;39163;52.696;6.758;2022-11-20T13:36:20;3.60;99.90
53274;DHT22;39163;52.696;6.758;2022-11-20T13:38:49;3.50;99.90
53274;DHT22;39163;52.696;6.758;2022-11-20T13:41:36;3.50;99.90
53274;DHT22;39163;52.696;6.758;2022-11-20T13:46:48;3.40;99.90
53274;DHT22;39163;52.696;6.758;2022-11-20T13:49:23;3.40;99.90
53274;DHT22;39163;52.696;6.758;2022-11-20T13:51:53;3.40;99.90
53274;DHT22;39163;52.696;6.758;2022-11-20T14:02:33;3.10;99.90
53274;DHT22;39163;52.696;6.758;2022-11-20T14:04:59;3.10;99.90
53274;DHT22;39163;52.696;6.758;2022-11-20T14:07:37;3.10;99.90
53274;DHT22;39163;52.696;6.758;2022-11-20T14:10:05;3.00;99.90
53274;DHT22;39163;52.696;6.758;2022-11-20T14:12:33;3.00;99.90
53274;DHT22;39163;52.696;6.758;2022-11-20T14:14:59;3.00;99.90
53274;DHT22;39163;52.696;6.758;2022-11-20T14:17:31;3.00;99.90
53274;DHT22;39163;52.696;6.758;2022-11-20T14:20:03;2.90;99.90
53274;DHT22;39163;52.696;6.758;2022-11-20T14:22:30;2.80;99.90
53274;DHT22;39163;52.696;6.758;2022-11-20T14:27:42;2.70;99.90
53274;DHT22;39163;52.696;6.758;2022-11-20T14:30:45;2.60;99.90
53274;DHT22;39163;52.696;6.758;2022-11-20T14:33:13;2.60;99.90
53274;DHT22;39163;52.696;6.758;2022-11-20T14:35:53;2.50;99.90
53274;DHT22;39163;52.696;6.758;2022-11-20T14:38:24;2.50;99.90
53274;DHT22;39163;52.696;6.758;2022-11-20T14:40:50;2.40;99.90
53274;DHT22;39163;52.696;6.758;2022-11-20T14:43:27;2.30;99.90
53274;DHT22;39163;52.696;6.758;2022-11-20T14:46:03;2.30;99.90
53274;DHT22;39163;52.696;6.758;2022-11-20T14:48:44;2.30;99.90
53274;DHT22;39163;52.696;6.758;2022-11-20T14:51:11;2.30;99.90
53274;DHT22;39163;52.696;6.758;2022-11-20T14:53:37;2.20;99.90
53274;DHT22;39163;52.696;6.758;2022-11-20T14:56:03;2.20;99.90
53274;DHT22;39163;52.696;6.758;2022-11-20T14:58:31;2.20;99.90
53274;DHT22;39163;52.696;6.758;2022-11-20T15:01:01;2.20;99.90
53274;DHT22;39163;52.696;6.758;2022-11-20T15:03:39;2.20;99.90
53274;DHT22;39163;52.696;6.758;2022-11-20T15:06:07;2.20;99.90
53274;DHT22;39163;52.696;6.758;2022-11-20T15:08:34;2.20;99.90
53274;DHT22;39163;52.696;6.758;2022-11-20T15:11:00;2.20;99.90
53274;DHT22;39163;52.696;6.758;2022-11-20T15:13:38;2.10;99.90
53274;DHT22;39163;52.696;6.758;2022-11-20T15:16:16;2.10;99.90
53274;DHT22;39163;52.696;6.758;2022-11-20T15:18:43;2.10;99.90
53274;DHT22;39163;52.696;6.758;2022-11-20T15:21:14;2.10;99.90
53274;DHT22;39163;52.696;6.758;2022-11-20T15:23:40;2.00;99.90
53274;DHT22;39163;52.696;6.758;2022-11-20T15:26:10;2.00;99.90
53274;DHT22;39163;52.696;6.758;2022-11-20T15:28:41;2.00;99.90
53274;DHT22;39163;52.696;6.758;2022-11-20T15:31:11;2.00;99.90
53274;DHT22;39163;52.696;6.758;2022-11-20T15:33:37;2.00;99.90
53274;DHT22;39163;52.696;6.758;2022-11-20T15:36:03;2.00;99.90
53274;DHT22;39163;52.696;6.758;2022-11-20T15:38:29;2.00;99.90
53274;DHT22;39163;52.696;6.758;2022-11-20T15:40:55;2.00;99.90
53274;DHT22;39163;52.696;6.758;2022-11-20T15:43:21;1.90;99.90
53274;DHT22;39163;52.696;6.758;2022-11-20T15:46:02;1.90;99.90
53274;DHT22;39163;52.696;6.758;2022-11-20T15:48:44;2.00;99.90
53274;DHT22;39163;52.696;6.758;2022-11-20T15:53:37;1.90;99.90
53274;DHT22;39163;52.696;6.758;2022-11-20T15:56:03;1.90;99.90
53274;DHT22;39163;52.696;6.758;2022-11-20T15:58:29;1.90;99.90
53274;DHT22;39163;52.696;6.758;2022-11-20T16:00:55;1.90;99.90
53274;DHT22;39163;52.696;6.758;2022-11-20T16:03:22;1.90;99.90
53274;DHT22;39163;52.696;6.758;2022-11-20T16:05:48;1.90;99.90
53274;DHT22;39163;52.696;6.758;2022-11-20T16:08:14;1.90;99.90
53274;DHT22;39163;52.696;6.758;2022-11-20T16:10:40;1.90;99.90
53274;DHT22;39163;52.696;6.758;2022-11-20T16:13:12;1.90;99.90
53274;DHT22;39163;52.696;6.758;2022-11-20T16:15:59;1.90;99.90
53274;DHT22;39163;52.696;6.758;2022-11-20T16:18:25;1.90;99.90
53274;DHT22;39163;52.696;6.758;2022-11-20T16:20:54;1.90;99.90
53274;DHT22;39163;52.696;6.758;2022-11-20T16:23:20;1.90;99.90
53274;DHT22;39163;52.696;6.758;2022-11-20T16:25:47;1.90;99.90
53274;DHT22;39163;52.696;6.758;2022-11-20T16:28:13;1.90;99.90
53274;DHT22;39163;52.696;6.758;2022-11-20T16:30:39;2.00;99.90
53274;DHT22;39163;52.696;6.758;2022-11-20T16:33:10;1.90;99.90
53274;DHT22;39163;52.696;6.758;2022-11-20T16:35:55;1.90;99.90
53274;DHT22;39163;52.696;6.758;2022-11-20T16:38:24;1.90;99.90
53274;DHT22;39163;52.696;6.758;2022-11-20T16:41:03;1.90;99.90
53274;DHT22;39163;52.696;6.758;2022-11-20T16:43:29;1.90;99.90
53274;DHT22;39163;52.696;6.758;2022-11-20T16:45:55;1.90;99.90
53274;DHT22;39163;52.696;6.758;2022-11-20T16:48:21;1.90;99.90
53274;DHT22;39163;52.696;6.758;2022-11-20T16:51:08;1.90;99.90
53274;DHT22;39163;52.696;6.758;2022-11-20T16:53:37;1.90;99.90
53274;DHT22;39163;52.696;6.758;2022-11-20T16:56:11;1.90;99.90
53274;DHT22;39163;52.696;6.758;2022-11-20T16:58:37;1.90;99.90
53274;DHT22;39163;52.696;6.758;2022-11-20T17:01:07;1.90;99.90
53274;DHT22;39163;52.696;6.758;2022-11-20T17:03:43;1.80;99.90
53274;DHT22;39163;52.696;6.758;2022-11-20T17:06:22;1.80;99.90
53274;DHT22;39163;52.696;6.758;2022-11-20T17:08:50;1.80;99.90
53274;DHT22;39163;52.696;6.758;2022-11-20T17:11:17;1.80;99.90
53274;DHT22;39163;52.696;6.758;2022-11-20T17:13:46;1.80;99.90
53274;DHT22;39163;52.696;6.758;2022-11-20T17:16:20;1.80;99.90
53274;DHT22;39163;52.696;6.758;2022-11-20T17:18:49;1.80;99.90
53274;DHT22;39163;52.696;6.758;2022-11-20T17:21:16;1.80;99.90
53274;DHT22;39163;52.696;6.758;2022-11-20T17:23:48;1.80;99.90
53274;DHT22;39163;52.696;6.758;2022-11-20T17:26:21;1.80;99.90
53274;DHT22;39163;52.696;6.758;2022-11-20T17:28:55;1.80;99.90
53274;DHT22;39163;52.696;6.758;2022-11-20T17:31:35;1.70;99.90
53274;DHT22;39163;52.696;6.758;2022-11-20T17:34:05;1.80;99.90